Time;durP1;ratioP1;P1;durP2;ratioP2;P2;SDS_P1;SDS_P2;PMS_P1;PMS_P2;Temp;Humidity;BMP_temperature;BMP_pressure;BME280_temperature;BME280_humidity;BME280_pressure;Samples;Min_cycle;Max_cycle;Signal;HPM_P1;HPM_P2
2021/11/05 00:01:15;;;;;;;;;;;;;;;;;;5002821;28;19921;-82
2021/11/05 00:03:41;;;;;;;;;;;;;;;;;;4998349;28;19990;-80
2021/11/05 00:06:08;;;;;;;;;;;;;;;;;;5000851;28;19963;-81
2021/11/05 00:08:34;;;;;;;;;;;;;;;;;;5021740;28;20003;-80
2021/11/05 00:11:00;;;;;;;;;;;;;;;;;;5014059;28;19926;-80
2021/11/05 00:13:26;;;;;;;;;;;;;;;;;;5026635;28;19923;-80
2021/11/05 00:15:52;;;;;;;;;;;;;;;;;;4998218;28;20704;-81
2021/11/05 00:18:18;;;;;;;;;;;;;;;;;;5019232;28;19925;-80
2021/11/05 00:20:44;;;;;;;;;;;;;;;;;;5001966;28;19916;-81
2021/11/05 00:23:13;;;;;;;;;;;;;;;;;;5011177;28;19921;-81
2021/11/05 00:25:40;;;;;;;;;;;;;;;;;;5023786;28;19916;-81
2021/11/05 00:28:06;;;;;;;;;;;;;;;;;;5010864;28;20254;-82
2021/11/05 00:30:32;;;;;;;;;;;;;;;;;;5005720;28;20678;-81
2021/11/05 00:32:58;;;;;;;;;;;;;;;;;;5016960;28;19924;-82
2021/11/05 00:35:24;;;;;;;;;;;;;;;;;;5002695;28;19913;-83
2021/11/05 00:37:50;;;;;;;;;;;;;;;;;;5015820;28;20387;-83
2021/11/05 00:40:17;;;;;;;;;;;;;;;;;;5001421;28;19970;-82
2021/11/05 00:42:43;;;;;;;;;;;;;;;;;;5024809;28;19928;-83
2021/11/05 00:45:10;;;;;;;;;;;;;;;;;;4999635;28;20044;-83
2021/11/05 00:47:36;;;;;;;;;;;;;;;;;;5003359;28;19986;-81
2021/11/05 00:50:02;;;;;;;;;;;;;;;;;;5017537;28;19916;-83
2021/11/05 00:52:28;;;;;;;;;;;;;;;;;;5002218;28;20492;-82
2021/11/05 00:54:54;;;;;;;;;;;;;;;;;;4997736;28;19975;-83
2021/11/05 00:57:23;;;;;;;;;;;;;;;;;;5019651;28;19956;-83
2021/11/05 00:59:50;;;;;;;;;;;;;;;;;;5013896;28;19927;-82
2021/11/05 01:02:16;;;;;;;;;;;;;;;;;;5022833;28;19920;-83
2021/11/05 01:04:43;;;;;;;;;;;;;;;;;;5017885;28;19916;-83
2021/11/05 01:07:09;;;;;;;;;;;;;;;;;;5002025;28;20688;-82
2021/11/05 01:09:35;;;;;;;;;;;;;;;;;;5000206;28;19917;-83
2021/11/05 01:12:01;;;;;;;;;;;;;;;;;;5014653;28;19936;-83
2021/11/05 01:14:28;;;;;;;;;;;;;;;;;;5007579;28;20007;-85
2021/11/05 01:16:54;;;;;;;;;;;;;;;;;;4993271;28;19924;-83
2021/11/05 01:19:20;;;;;;;;;;;;;;;;;;5001390;28;20364;-83
2021/11/05 01:21:46;;;;;;;;;;;;;;;;;;5014056;28;20715;-83
2021/11/05 01:24:12;;;;;;;;;;;;;;;;;;4998828;28;19917;-84
2021/11/05 01:26:39;;;;;;;;;;;;;;;;;;5018252;28;19944;-85
2021/11/05 01:29:06;;;;;;;;;;;;;;;;;;5009438;28;20696;-84
2021/11/05 01:31:32;;;;;;;;;;;;;;;;;;5014492;28;19916;-84
2021/11/05 01:33:58;;;;;;;;;;;;;;;;;;5014215;28;19924;-84
2021/11/05 01:36:25;;;;;;;;;;;;;;;;;;5000615;28;19921;-83
2021/11/05 01:38:52;;;;;;;;;;;;;;;;;;5004037;28;19996;-83
2021/11/05 01:41:18;;;;;;;;;;;;;;;;;;5001159;28;19916;-82
2021/11/05 01:43:44;;;;;;;;;;;;;;;;;;5018199;28;19917;-81
2021/11/05 01:46:10;;;;;;;;;;;;;;;;;;5000645;28;19923;-83
2021/11/05 01:48:36;;;;;;;;;;;;;;;;;;4999537;28;19921;-82
2021/11/05 01:51:02;;;;;;;;;;;;;;;;;;5000670;28;20789;-82
2021/11/05 01:53:28;;;;;;;;;;;;;;;;;;5005244;28;19924;-83
2021/11/05 01:55:54;;;;;;;;;;;;;;;;;;4990646;28;19916;-84
2021/11/05 01:58:21;;;;;;;;;;;;;;;;;;5004090;28;19913;-82
2021/11/05 02:00:47;;;;;;;;;;;;;;;;;;4998067;28;19916;-83
2021/11/05 02:03:14;;;;;;;;;;;;;;;;;;5008378;28;19970;-82
2021/11/05 02:05:40;;;;;;;;;;;;;;;;;;5005633;28;19921;-82
2021/11/05 02:08:07;;;;;;;;;;;;;;;;;;5000310;28;19920;-82
2021/11/05 02:10:33;;;;;;;;;;;;;;;;;;5021024;28;19958;-85
2021/11/05 02:12:59;;;;;;;;;;;;;;;;;;4993094;28;19928;-82
2021/11/05 02:15:25;;;;;;;;;;;;;;;;;;5002384;28;20007;-83
2021/11/05 02:17:51;;;;;;;;;;;;;;;;;;4997282;28;20497;-83
2021/11/05 02:20:17;;;;;;;;;;;;;;;;;;5000283;28;19917;-83
2021/11/05 02:22:43;;;;;;;;;;;;;;;;;;5017351;28;20011;-83
2021/11/05 02:25:09;;;;;;;;;;;;;;;;;;4995436;28;19989;-82
2021/11/05 02:27:35;;;;;;;;;;;;;;;;;;5001421;28;19921;-81
2021/11/05 02:30:01;;;;;;;;;;;;;;;;;;5013586;28;19973;-82
2021/11/05 02:32:27;;;;;;;;;;;;;;;;;;5000859;28;19920;-82
2021/11/05 02:34:53;;;;;;;;;;;;;;;;;;5010837;28;19913;-83
2021/11/05 02:37:19;;;;;;;;;;;;;;;;;;5013855;28;19924;-82
2021/11/05 02:39:48;;;;;;;;;;;;;;;;;;5002899;28;20359;-83
2021/11/05 02:42:15;;;;;;;;;;;;;;;;;;5018128;28;19994;-82
2021/11/05 02:44:41;;;;;;;;;;;;;;;;;;5015980;28;19920;-83
2021/11/05 02:47:07;;;;;;;;;;;;;;;;;;5014401;28;22075;-82
2021/11/05 02:49:33;;;;;;;;;;;;;;;;;;4999683;28;19912;-83
2021/11/05 02:51:59;;;;;;;;;;;;;;;;;;5013706;28;20032;-82
2021/11/05 02:54:25;;;;;;;;;;;;;;;;;;5001811;28;19921;-82
2021/11/05 02:56:52;;;;;;;;;;;;;;;;;;5012190;28;19950;-83
2021/11/05 02:59:19;;;;;;;;;;;;;;;;;;5017081;28;19924;-81
2021/11/05 03:01:44;;;;;;;;;;;;;;;;;;5001905;28;20406;-81
2021/11/05 03:04:10;;;;;;;;;;;;;;;;;;5013244;28;19920;-81
2021/11/05 03:06:37;;;;;;;;;;;;;;;;;;5017015;28;19923;-81
2021/11/05 03:09:03;;;;;;;;;;;;;;;;;;4995281;28;19979;-81
2021/11/05 03:11:29;;;;;;;;;;;;;;;;;;5003869;28;20610;-81
2021/11/05 03:13:55;;;;;;;;;;;;;;;;;;5010522;28;19913;-81
2021/11/05 03:16:22;;;;;;;;;;;;;;;;;;5006205;28;19922;-82
2021/11/05 03:18:48;;;;;;;;;;;;;;;;;;5001762;28;20489;-81
2021/11/05 03:21:14;;;;;;;;;;;;;;;;;;4997963;28;19943;-81
2021/11/05 03:23:41;;;;;;;;;;;;;;;;;;5004038;28;19923;-81
2021/11/05 03:26:07;;;;;;;;;;;;;;;;;;4993154;28;20253;-81
2021/11/05 03:28:33;;;;;;;;;;;;;;;;;;5002395;28;20001;-81
2021/11/05 03:30:59;;;;;;;;;;;;;;;;;;4999529;28;20004;-84
2021/11/05 03:33:27;;;;;;;;;;;;;;;;;;5010259;28;20499;-81
2021/11/05 03:35:53;;;;;;;;;;;;;;;;;;4998408;28;19916;-81
2021/11/05 03:38:19;;;;;;;;;;;;;;;;;;4997240;28;19917;-82
2021/11/05 03:40:46;;;;;;;;;;;;;;;;;;4999476;28;19916;-81
2021/11/05 03:43:13;;;;;;;;;;;;;;;;;;5022093;28;19927;-81
2021/11/05 03:45:39;;;;;;;;;;;;;;;;;;4999808;28;20003;-80
2021/11/05 03:48:05;;;;;;;;;;;;;;;;;;5005337;28;19916;-81
2021/11/05 03:50:31;;;;;;;;;;;;;;;;;;5023413;28;19917;-81
2021/11/05 03:52:57;;;;;;;;;;;;;;;;;;5008149;28;20680;-81
2021/11/05 03:55:23;;;;;;;;;;;;;;;;;;5014319;28;19917;-80
2021/11/05 03:57:49;;;;;;;;;;;;;;;;;;5011373;28;20023;-81
2021/11/05 04:00:16;;;;;;;;;;;;;;;;;;5024600;28;19921;-81
2021/11/05 04:02:43;;;;;;;;;;;;;;;;;;5018857;28;20017;-82
2021/11/05 04:05:09;;;;;;;;;;;;;;;;;;5007890;28;19917;-82
2021/11/05 04:07:35;;;;;;;;;;;;;;;;;;5006618;28;19912;-81
2021/11/05 04:10:01;;;;;;;;;;;;;;;;;;4994890;28;19963;-81
2021/11/05 04:12:28;;;;;;;;;;;;;;;;;;4997990;28;19921;-81
2021/11/05 04:14:54;;;;;;;;;;;;;;;;;;5010705;28;20002;-80
2021/11/05 04:17:20;;;;;;;;;;;;;;;;;;5012027;28;20858;-80
2021/11/05 04:19:47;;;;;;;;;;;;;;;;;;4993548;28;19913;-80
2021/11/05 04:22:14;;;;;;;;;;;;;;;;;;4999062;28;19939;-82
2021/11/05 04:24:40;;;;;;;;;;;;;;;;;;4989224;28;20335;-81
2021/11/05 04:27:07;;;;;;;;;;;;;;;;;;4995554;28;19924;-81
2021/11/05 04:29:35;;;;;;;;;;;;;;;;;;4996521;28;20856;-81
2021/11/05 04:32:01;;;;;;;;;;;;;;;;;;5010158;28;19924;-82
2021/11/05 04:34:28;;;;;;;;;;;;;;;;;;4996036;28;19913;-81
2021/11/05 04:36:55;;;;;;;;;;;;;;;;;;4995255;28;19928;-81
2021/11/05 04:39:22;;;;;;;;;;;;;;;;;;4998307;28;19932;-81
2021/11/05 04:41:47;;;;;;;;;;;;;;;;;;4994174;28;19925;-81
2021/11/05 04:44:14;;;;;;;;;;;;;;;;;;5001210;28;19920;-81
2021/11/05 04:46:42;;;;;;;;;;;;;;;;;;5000402;28;20764;-81
2021/11/05 04:49:08;;;;;;;;;;;;;;;;;;4995546;28;19921;-81
2021/11/05 04:51:34;;;;;;;;;;;;;;;;;;5000208;28;19921;-83
2021/11/05 04:54:00;;;;;;;;;;;;;;;;;;4993726;28;20122;-80
2021/11/05 04:56:26;;;;;;;;;;;;;;;;;;5016901;28;19917;-80
2021/11/05 04:58:53;;;;;;;;;;;;;;;;;;4993912;28;19913;-80
2021/11/05 05:01:19;;;;;;;;;;;;;;;;;;4999039;28;20783;-80
2021/11/05 05:03:46;;;;;;;;;;;;;;;;;;5000793;28;19924;-81
2021/11/05 05:06:13;;;;;;;;;;;;;;;;;;4981453;28;19922;-82
2021/11/05 05:08:40;;;;;;;;;;;;;;;;;;5003174;28;19975;-82
2021/11/05 05:11:06;;;;;;;;;;;;;;;;;;5007284;28;19970;-82
2021/11/05 05:13:32;;;;;;;;;;;;;;;;;;5000653;28;20631;-83
2021/11/05 05:15:59;;;;;;;;;;;;;;;;;;4983181;28;19924;-82
2021/11/05 05:18:26;;;;;;;;;;;;;;;;;;5008609;28;20307;-82
2021/11/05 05:20:52;;;;;;;;;;;;;;;;;;4995783;28;19921;-82
2021/11/05 05:23:18;;;;;;;;;;;;;;;;;;4992027;28;19936;-82
2021/11/05 05:25:44;;;;;;;;;;;;;;;;;;4998794;28;19913;-82
2021/11/05 05:28:11;;;;;;;;;;;;;;;;;;5000938;28;19944;-82
2021/11/05 05:30:37;;;;;;;;;;;;;;;;;;4995180;28;20640;-83
2021/11/05 05:33:03;;;;;;;;;;;;;;;;;;4996576;28;19921;-83
2021/11/05 05:35:30;;;;;;;;;;;;;;;;;;5000955;28;19985;-81
2021/11/05 05:37:56;;;;;;;;;;;;;;;;;;4995182;28;20533;-80
2021/11/05 05:40:22;;;;;;;;;;;;;;;;;;5005064;28;19909;-82
2021/11/05 05:42:49;;;;;;;;;;;;;;;;;;4991930;28;19960;-82
2021/11/05 05:45:16;;;;;;;;;;;;;;;;;;5004781;28;19923;-82
2021/11/05 05:47:43;;;;;;;;;;;;;;;;;;4994930;28;19928;-82
2021/11/05 05:50:10;;;;;;;;;;;;;;;;;;4992749;28;19917;-84
2021/11/05 05:52:36;;;;;;;;;;;;;;;;;;5002025;28;19924;-84
2021/11/05 05:55:02;;;;;;;;;;;;;;;;;;4992636;28;19975;-87
2021/11/05 05:57:28;;;;;;;;;;;;;;;;;;5003802;28;19921;-82
2021/11/05 05:59:54;;;;;;;;;;;;;;;;;;4998346;28;19921;-83
2021/11/05 06:02:20;;;;;;;;;;;;;;;;;;4988740;28;19921;-84
2021/11/05 06:04:47;;;;;;;;;;;;;;;;;;5018432;28;19994;-85
2021/11/05 06:07:13;;;;;;;;;;;;;;;;;;4994286;28;19917;-85
2021/11/05 06:09:40;;;;;;;;;;;;;;;;;;5001264;28;19917;-84
2021/11/05 06:12:06;;;;;;;;;;;;;;;;;;5005651;28;19921;-87
2021/11/05 06:14:32;;;;;;;;;;;;;;;;;;5017570;28;19913;-88
2021/11/05 06:16:59;;;;;;;;;;;;;;;;;;5021750;28;19913;-87
2021/11/05 06:19:26;;;;;;;;;;;;;;;;;;5026275;28;19966;-88
2021/11/05 06:21:52;;;;;;;;;;;;;;;;;;5012427;28;19949;-88
2021/11/05 06:24:18;;;;;;;;;;;;;;;;;;5013741;28;20034;-88
2021/11/05 06:26:44;;;;;;;;;;;;;;;;;;5015528;28;19928;-89
2021/11/05 06:29:11;;;;;;;;;;;;;;;;;;5030162;28;21166;-88
2021/11/05 06:31:37;;;;;;;;;;;;;;;;;;5022454;28;19909;-87
2021/11/05 06:34:06;;;;;;;;;;;;;;;;;;5012209;28;19924;-88
2021/11/05 06:36:32;;;;;;;;;;;;;;;;;;5026622;28;19928;-87
2021/11/05 06:38:58;;;;;;;;;;;;;;;;;;5020253;28;19921;-88
2021/11/05 06:41:25;;;;;;;;;;;;;;;;;;5016896;28;19921;-87
2021/11/05 06:43:51;;;;;;;;;;;;;;;;;;5025683;28;20287;-87
2021/11/05 06:46:17;;;;;;;;;;;;;;;;;;5009055;28;19916;-87
2021/11/05 06:48:43;;;;;;;;;;;;;;;;;;5009966;28;19917;-88
2021/11/05 06:51:10;;;;;;;;;;;;;;;;;;4992196;28;19964;-89
2021/11/05 06:53:36;;;;;;;;;;;;;;;;;;5012399;28;20126;-82
2021/11/05 06:56:02;;;;;;;;;;;;;;;;;;4990968;28;19913;-82
2021/11/05 06:58:32;;;;;;;;;;;;;;;;;;4999889;28;19921;-82
2021/11/05 07:00:58;;;;;;;;;;;;;;;;;;4999022;28;19924;-84
2021/11/05 07:03:25;;;;;;;;;;;;;;;;;;4995212;28;19980;-81
2021/11/05 07:05:51;;;;;;;;;;;;;;;;;;4995349;28;19976;-82
2021/11/05 07:08:17;;;;;;;;;;;;;;;;;;4999935;28;19925;-82
2021/11/05 07:10:45;;;;;;;;;;;;;;;;;;4999669;28;19920;-82
2021/11/05 07:13:11;;;;;;;;;;;;;;;;;;4989281;28;19939;-81
2021/11/05 07:15:37;;;;;;;;;;;;;;;;;;4997989;28;19917;-81
2021/11/05 07:18:03;;;;;;;;;;;;;;;;;;4993244;28;20588;-81
2021/11/05 07:20:33;;;;;;;;;;;;;;;;;;4998427;28;19955;-81
2021/11/05 07:22:59;;;;;;;;;;;;;;;;;;5007629;28;20020;-80
2021/11/05 07:25:25;;;;;;;;;;;;;;;;;;5023455;28;19912;-81
2021/11/05 07:27:51;;;;;;;;;;;;;;;;;;4993955;28;20052;-81
2021/11/05 07:30:17;;;;;;;;;;;;;;;;;;5005930;28;19916;-82
2021/11/05 07:32:49;;;;;;;;;;;;;;;;;;5001439;28;19917;-82
2021/11/05 07:35:15;;;;;;;;;;;;;;;;;;4990562;28;19939;-80
2021/11/05 07:37:41;;;;;;;;;;;;;;;;;;4998472;28;20019;-81
2021/11/05 07:40:08;;;;;;;;;;;;;;;;;;4995105;28;19928;-81
2021/11/05 07:42:34;;;;;;;;;;;;;;;;;;5001461;28;19920;-80
2021/11/05 07:45:00;;;;;;;;;;;;;;;;;;4996940;28;19924;-81
2021/11/05 07:47:26;;;;;;;;;;;;;;;;;;4997424;28;19921;-80
2021/11/05 07:49:52;;;;;;;;;;;;;;;;;;4985619;28;19917;-81
2021/11/05 07:52:19;;;;;;;;;;;;;;;;;;4996683;28;19920;-81
2021/11/05 07:54:46;;;;;;;;;;;;;;;;;;5000911;28;19921;-81
2021/11/05 07:57:12;;;;;;;;;;;;;;;;;;5007556;28;19916;-81
2021/11/05 07:59:39;;;;;;;;;;;;;;;;;;5037514;28;19923;-81
2021/11/05 08:02:05;;;;;;;;;;;;;;;;;;5003523;28;19932;-81
2021/11/05 08:04:32;;;;;;;;;;;;;;;;;;5019543;28;19921;-81
2021/11/05 08:06:58;;;;;;;;;;;;;;;;;;4981946;28;19917;-82
2021/11/05 08:09:24;;;;;;;;;;;;;;;;;;5012836;28;20505;-82
2021/11/05 08:11:50;;;;;;;;;;;;;;;;;;4990400;28;19921;-82
2021/11/05 08:14:16;;;;;;;;;;;;;;;;;;4996281;28;19928;-82
2021/11/05 08:16:42;;;;;;;;;;;;;;;;;;4998744;28;19913;-82
2021/11/05 08:19:08;;;;;;;;;;;;;;;;;;4991701;28;19921;-82
2021/11/05 08:21:34;;;;;;;;;;;;;;;;;;4996274;28;20020;-82
2021/11/05 08:24:01;;;;;;;;;;;;;;;;;;4988518;28;19964;-82
2021/11/05 08:26:29;;;;;;;;;;;;;;;;;;5009110;28;20015;-82
2021/11/05 08:28:55;;;;;;;;;;;;;;;;;;4995429;28;20448;-81
2021/11/05 08:31:21;;;;;;;;;;;;;;;;;;4999265;28;19924;-81
2021/11/05 08:33:49;;;;;;;;;;;;;;;;;;5001318;28;19983;-80
2021/11/05 08:36:17;;;;;;;;;;;;;;;;;;4994412;28;19921;-80
2021/11/05 08:38:44;;;;;;;;;;;;;;;;;;4998265;28;19954;-80
2021/11/05 08:41:11;;;;;;;;;;;;;;;;;;4995956;28;19917;-80
2021/11/05 08:43:39;;;;;;;;;;;;;;;;;;4991271;28;19917;-81
2021/11/05 08:46:05;;;;;;;;;;;;;;;;;;5012639;28;19917;-80
2021/11/05 08:48:32;;;;;;;;;;;;;;;;;;4998779;28;19921;-80
2021/11/05 08:50:59;;;;;;;;;;;;;;;;;;4979965;28;20522;-82
2021/11/05 08:53:25;;;;;;;;;;;;;;;;;;5000871;28;19924;-80
2021/11/05 08:55:51;;;;;;;;;;;;;;;;;;4996129;28;20418;-80
2021/11/05 08:58:17;;;;;;;;;;;;;;;;;;5003223;28;19917;-80
2021/11/05 09:00:43;;;;;;;;;;;;;;;;;;5009783;28;19917;-80
2021/11/05 09:03:09;;;;;;;;;;;;;;;;;;4990674;28;20767;-80
2021/11/05 09:05:36;;;;;;;;;;;;;;;;;;5001721;28;19921;-80
2021/11/05 09:08:03;;;;;;;;;;;;;;;;;;4992713;28;19919;-80
2021/11/05 09:10:29;;;;;;;;;;;;;;;;;;5002493;28;20556;-80
2021/11/05 09:12:55;;;;;;;;;;;;;;;;;;4994789;28;19931;-81
2021/11/05 09:15:21;;;;;;;;;;;;;;;;;;5021255;28;19963;-80
2021/11/05 09:17:47;;;;;;;;;;;;;;;;;;5022888;28;20007;-80
2021/11/05 09:20:13;;;;;;;;;;;;;;;;;;4996494;28;19924;-80
2021/11/05 09:22:39;;;;;;;;;;;;;;;;;;5006607;28;19920;-81
2021/11/05 09:25:08;;;;;;;;;;;;;;;;;;5014858;28;19920;-81
2021/11/05 09:27:35;;;;;;;;;;;;;;;;;;5003564;28;20026;-81
2021/11/05 09:30:01;;;;;;;;;;;;;;;;;;5020966;28;19921;-81
2021/11/05 09:32:27;;;;;;;;;;;;;;;;;;4998667;28;19916;-82
2021/11/05 09:34:53;;;;;;;;;;;;;;;;;;4999366;28;19923;-81
2021/11/05 09:37:19;;;;;;;;;;;;;;;;;;5002542;28;19913;-82
2021/11/05 09:39:45;;;;;;;;;;;;;;;;;;5019499;28;19928;-81
2021/11/05 09:42:11;;;;;;;;;;;;;;;;;;5017005;28;19921;-82
2021/11/05 09:44:38;;;;;;;;;;;;;;;;;;4997899;28;20059;-84
2021/11/05 09:47:04;;;;;;;;;;;;;;;;;;4995465;28;20247;-80
2021/11/05 09:49:30;;;;;;;;;;;;;;;;;;5029582;28;20765;-85
2021/11/05 09:51:57;;;;;;;;;;;;;;;;;;5005055;28;19916;-84
2021/11/05 09:57:15;;;;;;;;;;;;;;;;;;5021717;28;20424;-80
2021/11/05 09:59:42;;;;;;;;;;;;;;;;;;5003605;28;19920;-80
2021/11/05 10:02:09;;;;;;;;;;;;;;;;;;5013318;28;20615;-80
2021/11/05 10:04:35;;;;;;;;;;;;;;;;;;4995222;28;19916;-81
2021/11/05 10:07:01;;;;;;;;;;;;;;;;;;5000633;28;19970;-80
2021/11/05 10:09:27;;;;;;;;;;;;;;;;;;5018027;28;19917;-80
2021/11/05 10:11:53;;;;;;;;;;;;;;;;;;4995840;28;20845;-80
2021/11/05 10:14:19;;;;;;;;;;;;;;;;;;5016820;28;19917;-80
2021/11/05 10:16:49;;;;;;;;;;;;;;;;;;4994655;28;19939;-81
2021/11/05 10:19:18;;;;;;;;;;;;;;;;;;5003055;28;19964;-80
2021/11/05 10:21:45;;;;;;;;;;;;;;;;;;5014810;28;20035;-80
2021/11/05 10:24:11;;;;;;;;;;;;;;;;;;4995652;28;19920;-80
2021/11/05 10:26:37;;;;;;;;;;;;;;;;;;5000437;28;19931;-80
2021/11/05 10:29:03;;;;;;;;;;;;;;;;;;5010091;28;19943;-80
2021/11/05 10:31:31;;;;;;;;;;;;;;;;;;5018362;28;19916;-80
2021/11/05 10:33:58;;;;;;;;;;;;;;;;;;5012220;28;20411;-80
2021/11/05 10:36:24;;;;;;;;;;;;;;;;;;5000704;28;19955;-80
2021/11/05 10:38:52;;;;;;;;;;;;;;;;;;5013077;28;19916;-80
2021/11/05 10:41:19;;;;;;;;;;;;;;;;;;4989291;28;20553;-80
2021/11/05 10:43:45;;;;;;;;;;;;;;;;;;5004885;28;19956;-79
2021/11/05 10:46:13;;;;;;;;;;;;;;;;;;4997767;28;20030;-84
2021/11/05 10:48:40;;;;;;;;;;;;;;;;;;5001349;28;19921;-83
2021/11/05 10:51:07;;;;;;;;;;;;;;;;;;5020605;28;20545;-84
2021/11/05 10:53:33;;;;;;;;;;;;;;;;;;4999418;28;20618;-84
2021/11/05 10:56:00;;;;;;;;;;;;;;;;;;4999702;28;20011;-84
2021/11/05 10:58:26;;;;;;;;;;;;;;;;;;5020193;28;20530;-83
2021/11/05 11:00:52;;;;;;;;;;;;;;;;;;5000317;28;19928;-84
2021/11/05 11:03:18;;;;;;;;;;;;;;;;;;5006399;28;19925;-83
2021/11/05 11:05:44;;;;;;;;;;;;;;;;;;5014475;28;20353;-84
2021/11/05 11:08:10;;;;;;;;;;;;;;;;;;5002048;28;20882;-84
2021/11/05 11:10:36;;;;;;;;;;;;;;;;;;5003167;28;20283;-84
2021/11/05 11:13:03;;;;;;;;;;;;;;;;;;4999623;28;19920;-84
2021/11/05 11:15:31;;;;;;;;;;;;;;;;;;4993207;28;20000;-84
2021/11/05 11:17:57;;;;;;;;;;;;;;;;;;4979987;28;20436;-85
2021/11/05 11:20:23;;;;;;;;;;;;;;;;;;4988600;28;19921;-85
2021/11/05 11:22:49;;;;;;;;;;;;;;;;;;4991442;28;19921;-84
2021/11/05 11:25:17;;;;;;;;;;;;;;;;;;4978743;28;19936;-85
2021/11/05 11:27:45;;;;;;;;;;;;;;;;;;4995054;28;19942;-84
2021/11/05 11:30:11;;;;;;;;;;;;;;;;;;4981198;28;20000;-84
2021/11/05 11:32:37;;;;;;;;;;;;;;;;;;4997721;28;19924;-84
2021/11/05 11:35:03;;;;;;;;;;;;;;;;;;4984482;28;19920;-86
2021/11/05 11:37:31;;;;;;;;;;;;;;;;;;4992559;28;19912;-85
2021/11/05 11:39:58;;;;;;;;;;;;;;;;;;4986094;28;19994;-85
2021/11/05 11:42:24;;;;;;;;;;;;;;;;;;4990391;28;19921;-84
2021/11/05 11:44:51;;;;;;;;;;;;;;;;;;4983236;28;19921;-85
2021/11/05 11:47:19;;;;;;;;;;;;;;;;;;4989906;28;19917;-85
2021/11/05 11:49:45;;;;;;;;;;;;;;;;;;4995270;28;19920;-84
2021/11/05 11:52:11;;;;;;;;;;;;;;;;;;4987767;28;19927;-84
2021/11/05 11:54:37;;;;;;;;;;;;;;;;;;4994755;28;20529;-84
2021/11/05 11:57:03;;;;;;;;;;;;;;;;;;4971415;28;19917;-83
2021/11/05 11:59:35;;;;;;;;;;;;;;;;;;4987803;28;19928;-84
2021/11/05 12:02:02;;;;;;;;;;;;;;;;;;4981326;28;20311;-83
2021/11/05 12:04:29;;;;;;;;;;;;;;;;;;4988405;28;19924;-84
2021/11/05 12:06:56;;;;;;;;;;;;;;;;;;5000243;28;19913;-85
2021/11/05 12:09:24;;;;;;;;;;;;;;;;;;4986289;28;20769;-84
2021/11/05 12:11:51;;;;;;;;;;;;;;;;;;5000962;28;19925;-83
2021/11/05 12:14:19;;;;;;;;;;;;;;;;;;5005400;28;19924;-84
2021/11/05 12:16:45;;;;;;;;;;;;;;;;;;5002206;28;20460;-84
2021/11/05 12:19:11;;;;;;;;;;;;;;;;;;5002702;28;19921;-84
2021/11/05 12:21:38;;;;;;;;;;;;;;;;;;4997657;28;20591;-84
2021/11/05 12:24:08;;;;;;;;;;;;;;;;;;5019190;28;19928;-89
2021/11/05 12:26:34;;;;;;;;;;;;;;;;;;5018974;28;20229;-91
2021/11/05 12:29:09;;;;;;;;;;;;;;;;;;5052176;28;19936;-89
2021/11/05 12:31:38;;;;;;;;;;;;;;;;;;5028929;28;19933;-88
2021/11/05 12:34:04;;;;;;;;;;;;;;;;;;5002114;28;19924;-89
2021/11/05 12:36:31;;;;;;;;;;;;;;;;;;5007980;28;20293;-90
2021/11/05 12:38:57;;;;;;;;;;;;;;;;;;5019293;28;19921;-89
2021/11/05 12:41:23;;;;;;;;;;;;;;;;;;5009278;28;19920;-89
2021/11/05 12:43:49;;;;;;;;;;;;;;;;;;5021568;28;19917;-86
2021/11/05 12:46:16;;;;;;;;;;;;;;;;;;5016894;28;19999;-87
2021/11/05 12:48:45;;;;;;;;;;;;;;;;;;5006900;28;19916;-86
2021/11/05 12:51:12;;;;;;;;;;;;;;;;;;4995803;28;19956;-86
2021/11/05 12:53:40;;;;;;;;;;;;;;;;;;5001925;28;21299;-86
2021/11/05 12:56:07;;;;;;;;;;;;;;;;;;5011631;28;19951;-86
2021/11/05 12:58:35;;;;;;;;;;;;;;;;;;5009177;28;20318;-88
2021/11/05 13:01:01;;;;;;;;;;;;;;;;;;5011425;28;20427;-89
2021/11/05 13:03:27;;;;;;;;;;;;;;;;;;5000647;28;19920;-84
2021/11/05 13:05:53;;;;;;;;;;;;;;;;;;5000820;28;19920;-84
2021/11/05 13:08:23;;;;;;;;;;;;;;;;;;5017463;28;20035;-84
2021/11/05 13:10:49;;;;;;;;;;;;;;;;;;5008457;28;19935;-84
2021/11/05 13:13:15;;;;;;;;;;;;;;;;;;5022904;28;19916;-83
2021/11/05 13:15:41;;;;;;;;;;;;;;;;;;5014916;28;19920;-83
2021/11/05 13:18:08;;;;;;;;;;;;;;;;;;5005227;28;19921;-84
2021/11/05 13:20:34;;;;;;;;;;;;;;;;;;5001901;28;19917;-84
2021/11/05 13:23:04;;;;;;;;;;;;;;;;;;4992858;28;19925;-84
2021/11/05 13:25:30;;;;;;;;;;;;;;;;;;5003548;28;19917;-83
2021/11/05 13:27:57;;;;;;;;;;;;;;;;;;5010009;28;20264;-84
2021/11/05 13:30:23;;;;;;;;;;;;;;;;;;5007884;28;20361;-84
2021/11/05 13:32:49;;;;;;;;;;;;;;;;;;4988211;28;20014;-86
2021/11/05 13:35:15;;;;;;;;;;;;;;;;;;5023343;28;19927;-84
2021/11/05 13:37:42;;;;;;;;;;;;;;;;;;5016729;28;20364;-83
2021/11/05 13:40:10;;;;;;;;;;;;;;;;;;4993567;28;19927;-84
2021/11/05 13:42:37;;;;;;;;;;;;;;;;;;5004824;28;20419;-84
2021/11/05 13:45:05;;;;;;;;;;;;;;;;;;5009357;28;19921;-84
2021/11/05 13:47:32;;;;;;;;;;;;;;;;;;5024407;28;20722;-86
2021/11/05 13:49:58;;;;;;;;;;;;;;;;;;4999651;28;19908;-88
2021/11/05 13:52:26;;;;;;;;;;;;;;;;;;5025466;28;19909;-88
2021/11/05 13:54:52;;;;;;;;;;;;;;;;;;5005035;28;20035;-88
2021/11/05 13:57:22;;;;;;;;;;;;;;;;;;5010904;28;19920;-88
2021/11/05 13:59:49;;;;;;;;;;;;;;;;;;5011574;28;19921;-87
2021/11/05 14:02:15;;;;;;;;;;;;;;;;;;5019284;28;21331;-86
2021/11/05 14:04:42;;;;;;;;;;;;;;;;;;5024848;28;19913;-85
2021/11/05 14:07:10;;;;;;;;;;;;;;;;;;5015394;28;19921;-85
2021/11/05 14:09:36;;;;;;;;;;;;;;;;;;4999956;28;19988;-85
2021/11/05 14:12:02;;;;;;;;;;;;;;;;;;5014531;28;19921;-84
2021/11/05 14:14:29;;;;;;;;;;;;;;;;;;5016120;28;19924;-83
2021/11/05 14:16:55;;;;;;;;;;;;;;;;;;4990051;28;20369;-83
2021/11/05 14:19:21;;;;;;;;;;;;;;;;;;5001834;28;19971;-83
2021/11/05 14:21:47;;;;;;;;;;;;;;;;;;5000590;28;19928;-83
2021/11/05 14:24:13;;;;;;;;;;;;;;;;;;5012987;28;19970;-83
2021/11/05 14:26:39;;;;;;;;;;;;;;;;;;5001147;28;19932;-83
2021/11/05 14:29:06;;;;;;;;;;;;;;;;;;5001300;28;20705;-84
2021/11/05 14:31:33;;;;;;;;;;;;;;;;;;5003835;28;20504;-83
2021/11/05 14:34:00;;;;;;;;;;;;;;;;;;4990380;28;19932;-83
2021/11/05 14:36:26;;;;;;;;;;;;;;;;;;5002546;28;19921;-80
2021/11/05 14:38:53;;;;;;;;;;;;;;;;;;4991000;28;20594;-80
2021/11/05 14:41:19;;;;;;;;;;;;;;;;;;4997337;28;19948;-81
2021/11/05 14:43:46;;;;;;;;;;;;;;;;;;4997484;28;19952;-80
2021/11/05 14:46:12;;;;;;;;;;;;;;;;;;4995033;28;21266;-79
2021/11/05 14:48:38;;;;;;;;;;;;;;;;;;5000404;28;19921;-79
2021/11/05 14:51:08;;;;;;;;;;;;;;;;;;4988941;28;19947;-80
2021/11/05 14:53:35;;;;;;;;;;;;;;;;;;5005361;28;19917;-80
2021/11/05 14:56:02;;;;;;;;;;;;;;;;;;4986744;28;20385;-80
2021/11/05 14:58:29;;;;;;;;;;;;;;;;;;5021498;28;20501;-80
2021/11/05 15:00:55;;;;;;;;;;;;;;;;;;4990916;28;19917;-81
2021/11/05 15:03:22;;;;;;;;;;;;;;;;;;4995027;28;19921;-80
2021/11/05 15:05:48;;;;;;;;;;;;;;;;;;5017309;28;19931;-80
2021/11/05 15:08:14;;;;;;;;;;;;;;;;;;4982823;28;19917;-80
2021/11/05 15:10:40;;;;;;;;;;;;;;;;;;4998453;28;19916;-79
2021/11/05 15:13:06;;;;;;;;;;;;;;;;;;4991154;28;20010;-79
2021/11/05 15:15:33;;;;;;;;;;;;;;;;;;4997701;28;20816;-79
2021/11/05 15:17:59;;;;;;;;;;;;;;;;;;4997453;28;20332;-80
2021/11/05 15:20:25;;;;;;;;;;;;;;;;;;4998078;28;19967;-80
2021/11/05 15:22:51;;;;;;;;;;;;;;;;;;4998430;28;19971;-80
2021/11/05 15:25:17;;;;;;;;;;;;;;;;;;4995304;28;19924;-81
2021/11/05 15:27:45;;;;;;;;;;;;;;;;;;5001536;28;19917;-79
2021/11/05 15:30:12;;;;;;;;;;;;;;;;;;4998432;28;20716;-82
2021/11/05 15:32:38;;;;;;;;;;;;;;;;;;4998772;28;20638;-81
2021/11/05 15:35:04;;;;;;;;;;;;;;;;;;4998671;28;20006;-81
2021/11/05 15:37:30;;;;;;;;;;;;;;;;;;4995638;28;19917;-81
2021/11/05 15:39:56;;;;;;;;;;;;;;;;;;4999366;28;20012;-81
2021/11/05 15:42:22;;;;;;;;;;;;;;;;;;5018657;28;19920;-79
2021/11/05 15:44:49;;;;;;;;;;;;;;;;;;5001198;28;19925;-80
2021/11/05 15:47:16;;;;;;;;;;;;;;;;;;5008596;28;19921;-80
2021/11/05 15:49:43;;;;;;;;;;;;;;;;;;4997258;28;19917;-81
2021/11/05 15:52:09;;;;;;;;;;;;;;;;;;5017370;28;21023;-80
2021/11/05 15:54:36;;;;;;;;;;;;;;;;;;5015949;28;19917;-80
2021/11/05 15:57:03;;;;;;;;;;;;;;;;;;4998445;28;20361;-81
2021/11/05 15:59:31;;;;;;;;;;;;;;;;;;5004214;28;19959;-81
2021/11/05 16:01:58;;;;;;;;;;;;;;;;;;4994213;28;19996;-81
2021/11/05 16:04:24;;;;;;;;;;;;;;;;;;5009094;28;19913;-81
2021/11/05 16:06:51;;;;;;;;;;;;;;;;;;4997123;28;19916;-80
2021/11/05 16:09:17;;;;;;;;;;;;;;;;;;4994319;28;19925;-79
2021/11/05 16:11:43;;;;;;;;;;;;;;;;;;5016678;28;19921;-80
2021/11/05 16:14:09;;;;;;;;;;;;;;;;;;4999006;28;19964;-82
2021/11/05 16:16:36;;;;;;;;;;;;;;;;;;5001785;28;20007;-81
2021/11/05 16:19:02;;;;;;;;;;;;;;;;;;4985162;28;19917;-80
2021/11/05 16:21:29;;;;;;;;;;;;;;;;;;5016884;28;19917;-80
2021/11/05 16:23:56;;;;;;;;;;;;;;;;;;4987066;28;19960;-83
2021/11/05 16:26:22;;;;;;;;;;;;;;;;;;4997968;28;19917;-84
2021/11/05 16:28:49;;;;;;;;;;;;;;;;;;4998628;28;19925;-84
2021/11/05 16:31:18;;;;;;;;;;;;;;;;;;4999275;28;19921;-83
2021/11/05 16:33:44;;;;;;;;;;;;;;;;;;5004113;28;19960;-84
2021/11/05 16:36:10;;;;;;;;;;;;;;;;;;5000917;28;19963;-83
2021/11/05 16:38:38;;;;;;;;;;;;;;;;;;5003274;28;19999;-84
2021/11/05 16:41:04;;;;;;;;;;;;;;;;;;4982223;28;20413;-84
2021/11/05 16:43:30;;;;;;;;;;;;;;;;;;4992127;28;19917;-83